sensor_id;sensor_type;location;lat;lon;timestamp;temperature;humidity
25108;DHT22;13090;53.422;7.670;2023-04-03T00:03:29;4.20;73.00
25108;DHT22;13090;53.422;7.670;2023-04-03T00:08:33;4.10;74.10
25108;DHT22;13090;53.422;7.670;2023-04-03T00:13:36;4.10;73.30
25108;DHT22;13090;53.422;7.670;2023-04-03T00:18:39;4.00;73.30
25108;DHT22;13090;53.422;7.670;2023-04-03T00:23:43;3.90;72.40
25108;DHT22;13090;53.422;7.670;2023-04-03T00:28:47;3.90;73.20
25108;DHT22;13090;53.422;7.670;2023-04-03T00:33:49;3.80;73.60
25108;DHT22;13090;53.422;7.670;2023-04-03T00:38:52;3.80;74.10
25108;DHT22;13090;53.422;7.670;2023-04-03T00:43:54;3.70;75.30
25108;DHT22;13090;53.422;7.670;2023-04-03T00:48:57;3.60;75.90
25108;DHT22;13090;53.422;7.670;2023-04-03T00:54:03;3.60;76.80
25108;DHT22;13090;53.422;7.670;2023-04-03T00:59:10;3.50;77.50
25108;DHT22;13090;53.422;7.670;2023-04-03T01:04:27;3.50;78.90
25108;DHT22;13090;53.422;7.670;2023-04-03T01:09:32;3.40;78.30
25108;DHT22;13090;53.422;7.670;2023-04-03T01:14:34;3.40;78.00
25108;DHT22;13090;53.422;7.670;2023-04-03T01:19:41;3.40;76.40
25108;DHT22;13090;53.422;7.670;2023-04-03T01:24:51;3.40;75.60
25108;DHT22;13090;53.422;7.670;2023-04-03T01:29:53;3.40;75.30
25108;DHT22;13090;53.422;7.670;2023-04-03T01:34:57;3.40;74.50
25108;DHT22;13090;53.422;7.670;2023-04-03T01:39:59;3.30;74.50
25108;DHT22;13090;53.422;7.670;2023-04-03T01:45:02;3.30;74.00
25108;DHT22;13090;53.422;7.670;2023-04-03T01:50:07;3.30;75.00
25108;DHT22;13090;53.422;7.670;2023-04-03T01:55:09;3.20;75.70
25108;DHT22;13090;53.422;7.670;2023-04-03T02:00:12;3.10;76.20
25108;DHT22;13090;53.422;7.670;2023-04-03T02:05:16;3.10;78.50
25108;DHT22;13090;53.422;7.670;2023-04-03T02:10:18;2.90;79.60
25108;DHT22;13090;53.422;7.670;2023-04-03T02:15:21;2.90;78.70
25108;DHT22;13090;53.422;7.670;2023-04-03T02:20:24;2.90;78.50
25108;DHT22;13090;53.422;7.670;2023-04-03T02:25:27;2.80;77.50
25108;DHT22;13090;53.422;7.670;2023-04-03T02:30:29;2.80;77.60
25108;DHT22;13090;53.422;7.670;2023-04-03T02:35:33;2.80;77.90
25108;DHT22;13090;53.422;7.670;2023-04-03T02:40:35;2.70;79.80
25108;DHT22;13090;53.422;7.670;2023-04-03T02:45:37;2.70;79.30
25108;DHT22;13090;53.422;7.670;2023-04-03T02:50:41;2.70;80.40
25108;DHT22;13090;53.422;7.670;2023-04-03T02:55:44;2.70;78.80
25108;DHT22;13090;53.422;7.670;2023-04-03T03:00:49;2.60;78.50
25108;DHT22;13090;53.422;7.670;2023-04-03T03:06:02;2.60;81.20
25108;DHT22;13090;53.422;7.670;2023-04-03T03:11:05;2.60;82.40
25108;DHT22;13090;53.422;7.670;2023-04-03T03:16:07;2.60;79.60
25108;DHT22;13090;53.422;7.670;2023-04-03T03:21:11;2.60;79.00
25108;DHT22;13090;53.422;7.670;2023-04-03T03:26:13;2.50;78.70
25108;DHT22;13090;53.422;7.670;2023-04-03T03:31:15;2.50;78.70
25108;DHT22;13090;53.422;7.670;2023-04-03T03:36:19;2.50;77.90
25108;DHT22;13090;53.422;7.670;2023-04-03T03:41:21;2.50;77.50
25108;DHT22;13090;53.422;7.670;2023-04-03T03:46:25;2.50;77.50
25108;DHT22;13090;53.422;7.670;2023-04-03T03:51:28;2.50;77.80
25108;DHT22;13090;53.422;7.670;2023-04-03T03:56:30;2.50;77.70
25108;DHT22;13090;53.422;7.670;2023-04-03T04:01:33;2.50;77.50
25108;DHT22;13090;53.422;7.670;2023-04-03T04:06:37;2.50;78.00
25108;DHT22;13090;53.422;7.670;2023-04-03T04:11:39;2.40;78.30
25108;DHT22;13090;53.422;7.670;2023-04-03T04:16:41;2.40;78.10
25108;DHT22;13090;53.422;7.670;2023-04-03T04:21:44;2.30;77.90
25108;DHT22;13090;53.422;7.670;2023-04-03T04:26:46;2.30;78.10
25108;DHT22;13090;53.422;7.670;2023-04-03T04:31:49;2.30;80.00
25108;DHT22;13090;53.422;7.670;2023-04-03T04:36:52;2.20;81.00
25108;DHT22;13090;53.422;7.670;2023-04-03T04:41:55;2.20;80.90
25108;DHT22;13090;53.422;7.670;2023-04-03T04:46:57;2.20;80.20
25108;DHT22;13090;53.422;7.670;2023-04-03T04:52:00;2.20;80.90
25108;DHT22;13090;53.422;7.670;2023-04-03T04:57:04;2.10;80.80
25108;DHT22;13090;53.422;7.670;2023-04-03T05:02:06;2.10;80.10
25108;DHT22;13090;53.422;7.670;2023-04-03T05:07:10;2.10;79.30
25108;DHT22;13090;53.422;7.670;2023-04-03T05:12:12;2.20;79.20
25108;DHT22;13090;53.422;7.670;2023-04-03T05:17:14;2.20;79.30
25108;DHT22;13090;53.422;7.670;2023-04-03T05:22:18;2.30;79.50
25108;DHT22;13090;53.422;7.670;2023-04-03T05:27:20;2.40;79.70
25108;DHT22;13090;53.422;7.670;2023-04-03T05:32:24;2.60;79.30
25108;DHT22;13090;53.422;7.670;2023-04-03T05:37:28;3.00;80.10
25108;DHT22;13090;53.422;7.670;2023-04-03T05:42:30;3.70;80.70
25108;DHT22;13090;53.422;7.670;2023-04-03T05:47:33;4.60;80.30
25108;DHT22;13090;53.422;7.670;2023-04-03T05:52:38;5.40;78.90
25108;DHT22;13090;53.422;7.670;2023-04-03T05:57:42;6.20;77.60
25108;DHT22;13090;53.422;7.670;2023-04-03T06:02:44;7.00;76.70
25108;DHT22;13090;53.422;7.670;2023-04-03T06:07:48;7.70;74.60
25108;DHT22;13090;53.422;7.670;2023-04-03T06:12:50;8.30;73.60
25108;DHT22;13090;53.422;7.670;2023-04-03T06:17:52;8.80;72.50
25108;DHT22;13090;53.422;7.670;2023-04-03T06:22:56;9.30;71.00
25108;DHT22;13090;53.422;7.670;2023-04-03T06:27:58;9.80;71.40
25108;DHT22;13090;53.422;7.670;2023-04-03T06:33:01;10.40;71.00
25108;DHT22;13090;53.422;7.670;2023-04-03T06:38:05;10.90;66.90
25108;DHT22;13090;53.422;7.670;2023-04-03T06:43:07;11.20;66.90
25108;DHT22;13090;53.422;7.670;2023-04-03T06:48:09;11.50;64.20
25108;DHT22;13090;53.422;7.670;2023-04-03T06:53:13;11.60;64.60
25108;DHT22;13090;53.422;7.670;2023-04-03T06:58:15;11.90;62.40
25108;DHT22;13090;53.422;7.670;2023-04-03T07:03:19;12.30;62.60
25108;DHT22;13090;53.422;7.670;2023-04-03T07:08:23;12.50;61.00
25108;DHT22;13090;53.422;7.670;2023-04-03T07:13:25;12.70;56.20
25108;DHT22;13090;53.422;7.670;2023-04-03T07:18:27;12.80;55.50
25108;DHT22;13090;53.422;7.670;2023-04-03T07:23:31;12.90;56.90
25108;DHT22;13090;53.422;7.670;2023-04-03T07:28:34;13.00;53.50
25108;DHT22;13090;53.422;7.670;2023-04-03T07:33:36;12.90;50.60
25108;DHT22;13090;53.422;7.670;2023-04-03T07:38:40;12.80;51.30
25108;DHT22;13090;53.422;7.670;2023-04-03T07:43:43;12.60;48.20
25108;DHT22;13090;53.422;7.670;2023-04-03T07:48:45;12.40;47.70
25108;DHT22;13090;53.422;7.670;2023-04-03T07:53:48;12.30;50.50
25108;DHT22;13090;53.422;7.670;2023-04-03T07:58:51;12.50;50.90
25108;DHT22;13090;53.422;7.670;2023-04-03T08:03:53;12.70;49.10
25108;DHT22;13090;53.422;7.670;2023-04-03T08:08:57;12.60;46.10
25108;DHT22;13090;53.422;7.670;2023-04-03T08:13:59;12.50;45.40
25108;DHT22;13090;53.422;7.670;2023-04-03T08:19:02;12.30;46.00
25108;DHT22;13090;53.422;7.670;2023-04-03T08:24:09;12.50;46.20
25108;DHT22;13090;53.422;7.670;2023-04-03T08:29:11;12.60;46.00
25108;DHT22;13090;53.422;7.670;2023-04-03T08:34:14;12.80;44.10
25108;DHT22;13090;53.422;7.670;2023-04-03T08:39:17;12.70;41.80
25108;DHT22;13090;53.422;7.670;2023-04-03T08:44:24;12.70;42.50
25108;DHT22;13090;53.422;7.670;2023-04-03T08:49:32;12.70;42.50
25108;DHT22;13090;53.422;7.670;2023-04-03T08:54:47;12.70;41.20
25108;DHT22;13090;53.422;7.670;2023-04-03T08:59:50;12.90;42.50
25108;DHT22;13090;53.422;7.670;2023-04-03T09:04:52;13.20;44.70
25108;DHT22;13090;53.422;7.670;2023-04-03T09:09:56;13.60;40.60
25108;DHT22;13090;53.422;7.670;2023-04-03T09:15:10;13.70;41.50
25108;DHT22;13090;53.422;7.670;2023-04-03T09:20:24;14.00;41.90
25108;DHT22;13090;53.422;7.670;2023-04-03T09:25:32;14.50;45.60
25108;DHT22;13090;53.422;7.670;2023-04-03T09:30:35;15.00;41.90
25108;DHT22;13090;53.422;7.670;2023-04-03T09:35:41;15.30;38.90
25108;DHT22;13090;53.422;7.670;2023-04-03T09:41:04;15.60;41.50
25108;DHT22;13090;53.422;7.670;2023-04-03T09:46:28;15.80;38.70
25108;DHT22;13090;53.422;7.670;2023-04-03T09:51:33;15.70;35.90
25108;DHT22;13090;53.422;7.670;2023-04-03T09:56:37;15.80;41.20
25108;DHT22;13090;53.422;7.670;2023-04-03T10:01:42;16.00;41.40
25108;DHT22;13090;53.422;7.670;2023-04-03T10:06:47;16.40;40.00
25108;DHT22;13090;53.422;7.670;2023-04-03T10:12:03;16.70;43.80
25108;DHT22;13090;53.422;7.670;2023-04-03T10:17:16;17.70;41.90
25108;DHT22;13090;53.422;7.670;2023-04-03T10:22:33;18.10;36.30
25108;DHT22;13090;53.422;7.670;2023-04-03T10:27:47;17.90;35.60
25108;DHT22;13090;53.422;7.670;2023-04-03T10:33:01;17.70;33.60
25108;DHT22;13090;53.422;7.670;2023-04-03T10:38:15;17.50;37.00
25108;DHT22;13090;53.422;7.670;2023-04-03T10:43:32;17.40;37.60
25108;DHT22;13090;53.422;7.670;2023-04-03T10:48:56;17.90;35.10
25108;DHT22;13090;53.422;7.670;2023-04-03T10:54:08;18.50;37.90
25108;DHT22;13090;53.422;7.670;2023-04-03T10:59:22;18.90;31.00
25108;DHT22;13090;53.422;7.670;2023-04-03T11:04:29;18.60;29.60
25108;DHT22;13090;53.422;7.670;2023-04-03T11:09:34;17.50;32.60
25108;DHT22;13090;53.422;7.670;2023-04-03T11:14:42;17.10;31.30
25108;DHT22;13090;53.422;7.670;2023-04-03T11:19:48;16.70;33.50
25108;DHT22;13090;53.422;7.670;2023-04-03T11:25:04;16.70;31.60
25108;DHT22;13090;53.422;7.670;2023-04-03T11:30:16;16.20;32.10
25108;DHT22;13090;53.422;7.670;2023-04-03T11:35:20;16.20;35.00
25108;DHT22;13090;53.422;7.670;2023-04-03T11:40:26;16.00;32.40
25108;DHT22;13090;53.422;7.670;2023-04-03T11:45:36;15.60;31.30
25108;DHT22;13090;53.422;7.670;2023-04-03T11:50:44;15.20;33.60
25108;DHT22;13090;53.422;7.670;2023-04-03T11:55:58;15.20;36.80
25108;DHT22;13090;53.422;7.670;2023-04-03T12:01:10;15.50;33.80
25108;DHT22;13090;53.422;7.670;2023-04-03T12:11:56;15.50;33.00
25108;DHT22;13090;53.422;7.670;2023-04-03T12:17:02;15.40;34.80
25108;DHT22;13090;53.422;7.670;2023-04-03T12:22:11;15.20;34.90
25108;DHT22;13090;53.422;7.670;2023-04-03T12:27:25;15.00;36.70
25108;DHT22;13090;53.422;7.670;2023-04-03T12:32:47;15.20;38.60
25108;DHT22;13090;53.422;7.670;2023-04-03T12:43:46;15.90;36.20
25108;DHT22;13090;53.422;7.670;2023-04-03T12:48:56;15.50;32.60
25108;DHT22;13090;53.422;7.670;2023-04-03T12:54:02;14.50;32.10
25108;DHT22;13090;53.422;7.670;2023-04-03T12:59:20;13.70;35.50
25108;DHT22;13090;53.422;7.670;2023-04-03T13:04:27;13.50;36.30
25108;DHT22;13090;53.422;7.670;2023-04-03T13:09:31;13.40;36.90
25108;DHT22;13090;53.422;7.670;2023-04-03T13:14:33;13.40;34.60
25108;DHT22;13090;53.422;7.670;2023-04-03T13:19:38;13.50;36.80
25108;DHT22;13090;53.422;7.670;2023-04-03T13:24:40;13.50;37.70
25108;DHT22;13090;53.422;7.670;2023-04-03T13:29:43;13.50;35.80
25108;DHT22;13090;53.422;7.670;2023-04-03T13:34:48;13.30;36.90
25108;DHT22;13090;53.422;7.670;2023-04-03T13:40:01;13.20;37.00
25108;DHT22;13090;53.422;7.670;2023-04-03T13:45:18;13.20;38.00
25108;DHT22;13090;53.422;7.670;2023-04-03T13:50:24;13.30;38.70
25108;DHT22;13090;53.422;7.670;2023-04-03T13:55:29;13.40;37.20
25108;DHT22;13090;53.422;7.670;2023-04-03T14:00:38;13.20;36.90
25108;DHT22;13090;53.422;7.670;2023-04-03T14:05:44;13.20;38.60
25108;DHT22;13090;53.422;7.670;2023-04-03T14:10:49;13.10;36.30
25108;DHT22;13090;53.422;7.670;2023-04-03T14:15:51;13.00;38.90
25108;DHT22;13090;53.422;7.670;2023-04-03T14:20:57;13.20;39.70
25108;DHT22;13090;53.422;7.670;2023-04-03T14:26:01;13.40;39.80
25108;DHT22;13090;53.422;7.670;2023-04-03T14:31:03;13.60;39.50
25108;DHT22;13090;53.422;7.670;2023-04-03T14:36:13;13.70;40.10
25108;DHT22;13090;53.422;7.670;2023-04-03T14:41:18;13.90;40.10
25108;DHT22;13090;53.422;7.670;2023-04-03T14:46:26;14.00;40.30
25108;DHT22;13090;53.422;7.670;2023-04-03T14:51:41;14.20;40.40
25108;DHT22;13090;53.422;7.670;2023-04-03T14:56:44;14.30;40.40
25108;DHT22;13090;53.422;7.670;2023-04-03T15:01:46;14.40;40.40
25108;DHT22;13090;53.422;7.670;2023-04-03T15:06:51;14.30;40.00
25108;DHT22;13090;53.422;7.670;2023-04-03T15:11:56;14.20;40.50
25108;DHT22;13090;53.422;7.670;2023-04-03T15:16:59;14.20;40.70
25108;DHT22;13090;53.422;7.670;2023-04-03T15:22:03;14.20;40.80
25108;DHT22;13090;53.422;7.670;2023-04-03T15:27:05;14.10;40.50
25108;DHT22;13090;53.422;7.670;2023-04-03T15:32:08;14.00;39.90
25108;DHT22;13090;53.422;7.670;2023-04-03T15:37:12;13.80;40.20
25108;DHT22;13090;53.422;7.670;2023-04-03T15:42:14;13.60;39.90
25108;DHT22;13090;53.422;7.670;2023-04-03T15:47:17;13.40;40.90
25108;DHT22;13090;53.422;7.670;2023-04-03T15:52:20;13.30;41.20
25108;DHT22;13090;53.422;7.670;2023-04-03T15:57:22;13.30;41.40
25108;DHT22;13090;53.422;7.670;2023-04-03T16:02:26;13.30;41.70
25108;DHT22;13090;53.422;7.670;2023-04-03T16:07:30;13.30;40.80
25108;DHT22;13090;53.422;7.670;2023-04-03T16:12:33;13.00;40.80
25108;DHT22;13090;53.422;7.670;2023-04-03T16:17:37;12.80;41.30
25108;DHT22;13090;53.422;7.670;2023-04-03T16:22:43;12.70;42.00
25108;DHT22;13090;53.422;7.670;2023-04-03T16:27:45;12.70;42.30
25108;DHT22;13090;53.422;7.670;2023-04-03T16:32:49;12.60;42.60
25108;DHT22;13090;53.422;7.670;2023-04-03T16:37:52;12.60;42.90
25108;DHT22;13090;53.422;7.670;2023-04-03T16:42:54;12.50;43.20
25108;DHT22;13090;53.422;7.670;2023-04-03T16:48:00;12.50;43.50
25108;DHT22;13090;53.422;7.670;2023-04-03T16:53:03;12.50;43.70
25108;DHT22;13090;53.422;7.670;2023-04-03T16:58:05;12.50;44.60
25108;DHT22;13090;53.422;7.670;2023-04-03T17:03:10;12.50;44.00
25108;DHT22;13090;53.422;7.670;2023-04-03T17:08:15;12.40;44.10
25108;DHT22;13090;53.422;7.670;2023-04-03T17:13:17;12.30;44.40
25108;DHT22;13090;53.422;7.670;2023-04-03T17:18:19;12.20;44.70
25108;DHT22;13090;53.422;7.670;2023-04-03T17:23:23;12.10;44.80
25108;DHT22;13090;53.422;7.670;2023-04-03T17:28:25;12.00;45.10
25108;DHT22;13090;53.422;7.670;2023-04-03T17:33:28;11.90;45.20
25108;DHT22;13090;53.422;7.670;2023-04-03T17:38:33;11.80;45.40
25108;DHT22;13090;53.422;7.670;2023-04-03T17:43:35;11.60;45.60
25108;DHT22;13090;53.422;7.670;2023-04-03T17:48:39;11.50;45.70
25108;DHT22;13090;53.422;7.670;2023-04-03T17:53:43;11.40;45.90
25108;DHT22;13090;53.422;7.670;2023-04-03T17:58:49;11.20;46.10
25108;DHT22;13090;53.422;7.670;2023-04-03T18:03:54;11.00;46.30
25108;DHT22;13090;53.422;7.670;2023-04-03T18:09:06;10.80;46.50
25108;DHT22;13090;53.422;7.670;2023-04-03T18:14:13;10.70;47.10
25108;DHT22;13090;53.422;7.670;2023-04-03T18:19:17;10.50;47.10
25108;DHT22;13090;53.422;7.670;2023-04-03T18:24:26;10.30;47.30
25108;DHT22;13090;53.422;7.670;2023-04-03T18:29:30;10.20;47.60
25108;DHT22;13090;53.422;7.670;2023-04-03T18:34:36;10.00;47.90
25108;DHT22;13090;53.422;7.670;2023-04-03T18:39:40;9.90;48.20
25108;DHT22;13090;53.422;7.670;2023-04-03T18:44:44;9.70;48.50
25108;DHT22;13090;53.422;7.670;2023-04-03T18:49:47;9.60;48.70
25108;DHT22;13090;53.422;7.670;2023-04-03T18:54:51;9.50;48.80
25108;DHT22;13090;53.422;7.670;2023-04-03T18:59:53;9.30;49.10
25108;DHT22;13090;53.422;7.670;2023-04-03T19:04:55;9.20;49.30
25108;DHT22;13090;53.422;7.670;2023-04-03T19:09:59;9.10;49.60
25108;DHT22;13090;53.422;7.670;2023-04-03T19:15:01;8.90;49.90
25108;DHT22;13090;53.422;7.670;2023-04-03T19:20:04;8.80;50.20
25108;DHT22;13090;53.422;7.670;2023-04-03T19:25:09;8.70;50.50
25108;DHT22;13090;53.422;7.670;2023-04-03T19:30:14;8.60;50.90
25108;DHT22;13090;53.422;7.670;2023-04-03T19:35:16;8.50;51.10
25108;DHT22;13090;53.422;7.670;2023-04-03T19:40:20;8.40;51.30
25108;DHT22;13090;53.422;7.670;2023-04-03T19:45:22;8.30;51.60
25108;DHT22;13090;53.422;7.670;2023-04-03T19:50:24;8.20;51.80
25108;DHT22;13090;53.422;7.670;2023-04-03T19:55:29;8.20;52.00
25108;DHT22;13090;53.422;7.670;2023-04-03T20:00:31;8.10;52.40
25108;DHT22;13090;53.422;7.670;2023-04-03T20:05:33;8.10;52.40
25108;DHT22;13090;53.422;7.670;2023-04-03T20:10:37;8.00;52.70
25108;DHT22;13090;53.422;7.670;2023-04-03T20:15:41;7.90;53.00
25108;DHT22;13090;53.422;7.670;2023-04-03T20:20:44;7.80;53.10
25108;DHT22;13090;53.422;7.670;2023-04-03T20:25:48;7.80;53.40
25108;DHT22;13090;53.422;7.670;2023-04-03T20:31:10;7.70;53.70
25108;DHT22;13090;53.422;7.670;2023-04-03T20:36:12;7.70;53.90
25108;DHT22;13090;53.422;7.670;2023-04-03T20:41:16;7.60;53.90
25108;DHT22;13090;53.422;7.670;2023-04-03T20:46:18;7.50;54.30
25108;DHT22;13090;53.422;7.670;2023-04-03T20:51:21;7.40;54.20
25108;DHT22;13090;53.422;7.670;2023-04-03T20:56:28;7.30;54.40
25108;DHT22;13090;53.422;7.670;2023-04-03T21:01:30;7.20;54.80
25108;DHT22;13090;53.422;7.670;2023-04-03T21:23:30;6.90;56.30
25108;DHT22;13090;53.422;7.670;2023-04-03T21:28:32;6.80;55.60
25108;DHT22;13090;53.422;7.670;2023-04-03T21:33:36;6.70;56.80
25108;DHT22;13090;53.422;7.670;2023-04-03T21:38:38;6.40;56.50
25108;DHT22;13090;53.422;7.670;2023-04-03T21:43:40;6.30;57.00
25108;DHT22;13090;53.422;7.670;2023-04-03T21:48:44;6.30;57.20
25108;DHT22;13090;53.422;7.670;2023-04-03T21:53:46;6.20;57.80
25108;DHT22;13090;53.422;7.670;2023-04-03T21:58:48;6.20;58.00
25108;DHT22;13090;53.422;7.670;2023-04-03T22:03:56;6.20;58.50
25108;DHT22;13090;53.422;7.670;2023-04-03T22:08:58;6.10;58.80
25108;DHT22;13090;53.422;7.670;2023-04-03T22:14:00;6.00;57.90
25108;DHT22;13090;53.422;7.670;2023-04-03T22:19:03;6.00;58.10
25108;DHT22;13090;53.422;7.670;2023-04-03T22:24:06;5.90;58.60
25108;DHT22;13090;53.422;7.670;2023-04-03T22:29:08;5.90;58.30
25108;DHT22;13090;53.422;7.670;2023-04-03T22:34:12;5.80;61.10
25108;DHT22;13090;53.422;7.670;2023-04-03T22:39:14;5.60;62.40
25108;DHT22;13090;53.422;7.670;2023-04-03T22:44:16;5.50;62.30
25108;DHT22;13090;53.422;7.670;2023-04-03T22:49:20;5.40;64.50
25108;DHT22;13090;53.422;7.670;2023-04-03T22:54:22;5.30;67.10
25108;DHT22;13090;53.422;7.670;2023-04-03T22:59:24;5.20;67.70
25108;DHT22;13090;53.422;7.670;2023-04-03T23:04:27;5.00;69.70
25108;DHT22;13090;53.422;7.670;2023-04-03T23:09:29;4.90;70.70
25108;DHT22;13090;53.422;7.670;2023-04-03T23:14:32;4.80;70.40
25108;DHT22;13090;53.422;7.670;2023-04-03T23:19:35;4.80;69.90
25108;DHT22;13090;53.422;7.670;2023-04-03T23:24:37;4.70;68.90
25108;DHT22;13090;53.422;7.670;2023-04-03T23:29:39;4.60;68.60
25108;DHT22;13090;53.422;7.670;2023-04-03T23:34:43;4.60;69.40
25108;DHT22;13090;53.422;7.670;2023-04-03T23:39:45;4.60;68.30
25108;DHT22;13090;53.422;7.670;2023-04-03T23:44:47;4.60;66.30
25108;DHT22;13090;53.422;7.670;2023-04-03T23:49:51;4.60;65.40
25108;DHT22;13090;53.422;7.670;2023-04-03T23:54:53;4.50;64.40
25108;DHT22;13090;53.422;7.670;2023-04-03T23:59:55;4.50;63.20
